Aérodrome :
LOGIN :

S'inscrire | Disclaimer

   EN    FR    IT 

 










Légende :    VFR   VFR Marginal   IFR   IFR Intensif   IFR Très Intensif
Visi : 
Plafond : 
>= 8 km
>= 3000ft
5 à 8 km
1000 à 3000 ft
1500m à 5 km
500 à 1000 ft
800 à 1500m
200 à 500 ft
< 800m
< 200 ft
Symboles :   Orages  Brouillard  Fortes neiges  Fortes précipitations  Vent > 20 kt
SIGMETs :   Divers  Orages  Givrage  Turbulence  Onde Orograph.  Cendres Volcan.







- Altitude de l'aérodrome : 65 ft
- Code IATA : PIK
- Voir les cartes d'approche


EGPK - Glasgow Prestwick

DERNIER METAR :
  • 200850Z 20007KT 6000 FEW008 BKN012 10/10 Q1027

METARs EXPIRÉS :
  • 200820Z 20007KT 5000 FEW006 BKN010 10/10 Q1027
  • 200750Z 22008KT 8000 FEW006 BKN010 10/10 Q1027
  • 200720Z 22007KT 8000 FEW008 BKN012 10/09 Q1027
  • 200650Z 21005KT 9999 SCT011 BKN025 10/09 Q1026
  • 200620Z 22006KT 9999 SCT011 BKN025 10/09 Q1026

TAF AMD TAF EGPK
Valide du 20 à 06h jusqu'au 21 à 06h UTC


200555Z 2006/2106 21012KT 9999 SCT012
BECMG 2006/2009 BKN012
TEMPO 2006/2011 7000 -RA BKN008
BECMG 2011/2014 SCT012
TEMPO 2012/2017 22015G25KT
TEMPO 2014/2018 8000 -RA BKN012
TEMPO 2017/2103 22020G30KT
PROB30
TEMPO 2018/2024 8000 BKN012
BECMG 2100/2103 BKN010
Pas de NOTAMs connus pour ce terrain.



MET'MAP, la Météo Aéronautique d'un coup d'oeil ! - Copyright ORBIFLY Décembre 2007 - Disclaimer

ORBIFLY MET'MAP TEAM :

Programmation & Développement : Alexandra Zaïnal
Conception & Développement : Baudouin d'Aumeries
Co-Programmation & Développement : Marc-Olivier Méhu
Soutien technique & logistique : Manuel Goepfert

Contact : metmap@orbifly.com




SOURCES & CREDITS :

   NOAA